sensor_id;sensor_type;location;lat;lon;timestamp;P1;durP1;ratioP1;P2;durP2;ratioP2
70433;SDS011;57876;47.792;12.960;2023-07-31T00:00:25;3.73;;;0.70;;
70433;SDS011;57876;47.792;12.960;2023-07-31T00:02:49;5.53;;;0.80;;
70433;SDS011;57876;47.792;12.960;2023-07-31T00:05:14;4.37;;;1.10;;
70433;SDS011;57876;47.792;12.960;2023-07-31T00:07:38;6.78;;;1.27;;
70433;SDS011;57876;47.792;12.960;2023-07-31T00:10:02;4.10;;;0.63;;
70433;SDS011;57876;47.792;12.960;2023-07-31T00:12:27;3.60;;;0.90;;
70433;SDS011;57876;47.792;12.960;2023-07-31T00:14:51;4.13;;;0.87;;
70433;SDS011;57876;47.792;12.960;2023-07-31T00:17:16;3.90;;;0.70;;
70433;SDS011;57876;47.792;12.960;2023-07-31T00:19:41;3.57;;;0.70;;
70433;SDS011;57876;47.792;12.960;2023-07-31T00:22:05;4.28;;;0.90;;
70433;SDS011;57876;47.792;12.960;2023-07-31T00:24:30;4.23;;;0.70;;
70433;SDS011;57876;47.792;12.960;2023-07-31T00:26:54;3.80;;;0.80;;
70433;SDS011;57876;47.792;12.960;2023-07-31T00:29:18;4.60;;;0.90;;
70433;SDS011;57876;47.792;12.960;2023-07-31T00:31:43;4.27;;;1.00;;
70433;SDS011;57876;47.792;12.960;2023-07-31T00:34:07;4.50;;;1.08;;
70433;SDS011;57876;47.792;12.960;2023-07-31T00:36:32;4.33;;;0.90;;
70433;SDS011;57876;47.792;12.960;2023-07-31T00:38:56;4.40;;;1.37;;
70433;SDS011;57876;47.792;12.960;2023-07-31T00:41:20;3.93;;;0.80;;
70433;SDS011;57876;47.792;12.960;2023-07-31T00:43:45;3.42;;;0.75;;
70433;SDS011;57876;47.792;12.960;2023-07-31T00:46:09;3.93;;;0.87;;
70433;SDS011;57876;47.792;12.960;2023-07-31T00:48:33;3.80;;;0.90;;
70433;SDS011;57876;47.792;12.960;2023-07-31T00:51:00;4.40;;;1.00;;
70433;SDS011;57876;47.792;12.960;2023-07-31T00:53:25;3.90;;;0.80;;
70433;SDS011;57876;47.792;12.960;2023-07-31T00:55:49;3.30;;;0.80;;
70433;SDS011;57876;47.792;12.960;2023-07-31T00:58:14;3.93;;;1.00;;
70433;SDS011;57876;47.792;12.960;2023-07-31T01:00:38;4.07;;;0.80;;
70433;SDS011;57876;47.792;12.960;2023-07-31T01:03:03;4.85;;;1.05;;
70433;SDS011;57876;47.792;12.960;2023-07-31T01:05:50;4.33;;;1.00;;
70433;SDS011;57876;47.792;12.960;2023-07-31T01:11:38;5.28;;;1.27;;
70433;SDS011;57876;47.792;12.960;2023-07-31T01:14:10;4.05;;;0.90;;
70433;SDS011;57876;47.792;12.960;2023-07-31T01:16:34;4.40;;;1.03;;
70433;SDS011;57876;47.792;12.960;2023-07-31T01:18:59;5.10;;;0.90;;
70433;SDS011;57876;47.792;12.960;2023-07-31T01:27:06;3.75;;;0.88;;
70433;SDS011;57876;47.792;12.960;2023-07-31T01:29:40;3.97;;;0.88;;
70433;SDS011;57876;47.792;12.960;2023-07-31T01:32:06;4.27;;;0.90;;
70433;SDS011;57876;47.792;12.960;2023-07-31T01:34:32;4.57;;;0.90;;
70433;SDS011;57876;47.792;12.960;2023-07-31T01:36:58;3.17;;;0.70;;
70433;SDS011;57876;47.792;12.960;2023-07-31T01:39:23;3.87;;;0.80;;
70433;SDS011;57876;47.792;12.960;2023-07-31T01:41:47;3.27;;;0.70;;
70433;SDS011;57876;47.792;12.960;2023-07-31T01:44:11;4.50;;;0.90;;
70433;SDS011;57876;47.792;12.960;2023-07-31T01:46:36;4.10;;;1.00;;
70433;SDS011;57876;47.792;12.960;2023-07-31T01:49:00;5.27;;;1.00;;
70433;SDS011;57876;47.792;12.960;2023-07-31T01:51:24;5.13;;;1.03;;
70433;SDS011;57876;47.792;12.960;2023-07-31T01:53:49;5.57;;;1.00;;
70433;SDS011;57876;47.792;12.960;2023-07-31T01:56:16;4.45;;;1.13;;
70433;SDS011;57876;47.792;12.960;2023-07-31T01:58:40;3.60;;;0.73;;
70433;SDS011;57876;47.792;12.960;2023-07-31T02:01:04;3.90;;;0.90;;
70433;SDS011;57876;47.792;12.960;2023-07-31T02:03:29;3.53;;;0.80;;
70433;SDS011;57876;47.792;12.960;2023-07-31T02:05:53;4.10;;;0.90;;
70433;SDS011;57876;47.792;12.960;2023-07-31T02:08:18;4.30;;;0.90;;
70433;SDS011;57876;47.792;12.960;2023-07-31T02:10:43;4.00;;;0.90;;
70433;SDS011;57876;47.792;12.960;2023-07-31T02:13:07;4.00;;;0.83;;
70433;SDS011;57876;47.792;12.960;2023-07-31T02:15:32;3.87;;;0.80;;
70433;SDS011;57876;47.792;12.960;2023-07-31T02:17:56;3.65;;;0.80;;
70433;SDS011;57876;47.792;12.960;2023-07-31T02:20:21;3.07;;;0.60;;
70433;SDS011;57876;47.792;12.960;2023-07-31T02:22:45;3.97;;;1.00;;
70433;SDS011;57876;47.792;12.960;2023-07-31T02:25:10;4.03;;;0.88;;
70433;SDS011;57876;47.792;12.960;2023-07-31T02:27:34;4.47;;;1.00;;
70433;SDS011;57876;47.792;12.960;2023-07-31T02:29:58;4.27;;;1.00;;
70433;SDS011;57876;47.792;12.960;2023-07-31T02:32:23;3.70;;;0.90;;
70433;SDS011;57876;47.792;12.960;2023-07-31T02:34:48;3.80;;;0.80;;
70433;SDS011;57876;47.792;12.960;2023-07-31T02:37:12;3.63;;;0.70;;
70433;SDS011;57876;47.792;12.960;2023-07-31T02:39:37;3.90;;;0.90;;
70433;SDS011;57876;47.792;12.960;2023-07-31T02:42:01;3.78;;;0.80;;
70433;SDS011;57876;47.792;12.960;2023-07-31T02:44:26;3.70;;;0.70;;
70433;SDS011;57876;47.792;12.960;2023-07-31T02:46:50;4.20;;;0.80;;
70433;SDS011;57876;47.792;12.960;2023-07-31T02:49:15;3.23;;;0.70;;
70433;SDS011;57876;47.792;12.960;2023-07-31T02:51:39;4.30;;;0.93;;
70433;SDS011;57876;47.792;12.960;2023-07-31T02:54:03;3.83;;;0.90;;
70433;SDS011;57876;47.792;12.960;2023-07-31T02:56:28;4.10;;;0.90;;
70433;SDS011;57876;47.792;12.960;2023-07-31T02:58:52;4.13;;;1.00;;
70433;SDS011;57876;47.792;12.960;2023-07-31T03:01:16;4.00;;;1.00;;
70433;SDS011;57876;47.792;12.960;2023-07-31T03:03:41;4.37;;;1.13;;
70433;SDS011;57876;47.792;12.960;2023-07-31T03:06:06;4.40;;;1.00;;
70433;SDS011;57876;47.792;12.960;2023-07-31T03:08:30;4.07;;;0.90;;
70433;SDS011;57876;47.792;12.960;2023-07-31T03:10:56;4.20;;;1.00;;
70433;SDS011;57876;47.792;12.960;2023-07-31T03:13:20;3.85;;;0.75;;
70433;SDS011;57876;47.792;12.960;2023-07-31T03:15:45;4.13;;;0.90;;
70433;SDS011;57876;47.792;12.960;2023-07-31T03:18:09;5.30;;;1.10;;
70433;SDS011;57876;47.792;12.960;2023-07-31T03:20:34;3.90;;;1.10;;
70433;SDS011;57876;47.792;12.960;2023-07-31T03:22:58;3.83;;;0.90;;
70433;SDS011;57876;47.792;12.960;2023-07-31T03:25:23;4.10;;;0.80;;
70433;SDS011;57876;47.792;12.960;2023-07-31T03:27:47;4.47;;;0.90;;
70433;SDS011;57876;47.792;12.960;2023-07-31T03:30:11;4.10;;;0.90;;
70433;SDS011;57876;47.792;12.960;2023-07-31T03:32:36;4.57;;;1.10;;
70433;SDS011;57876;47.792;12.960;2023-07-31T03:35:00;3.70;;;0.80;;
70433;SDS011;57876;47.792;12.960;2023-07-31T03:44:37;3.20;;;0.70;;
70433;SDS011;57876;47.792;12.960;2023-07-31T03:51:07;3.53;;;0.70;;
70433;SDS011;57876;47.792;12.960;2023-07-31T03:53:31;3.40;;;0.80;;
70433;SDS011;57876;47.792;12.960;2023-07-31T03:55:55;3.50;;;0.60;;
70433;SDS011;57876;47.792;12.960;2023-07-31T03:58:20;3.67;;;0.80;;
70433;SDS011;57876;47.792;12.960;2023-07-31T04:00:45;3.20;;;0.63;;
70433;SDS011;57876;47.792;12.960;2023-07-31T04:03:09;3.45;;;0.80;;
70433;SDS011;57876;47.792;12.960;2023-07-31T04:05:37;2.67;;;0.50;;
70433;SDS011;57876;47.792;12.960;2023-07-31T04:08:02;3.40;;;0.80;;
70433;SDS011;57876;47.792;12.960;2023-07-31T04:10:27;3.37;;;0.60;;
70433;SDS011;57876;47.792;12.960;2023-07-31T04:12:51;3.10;;;0.60;;
70433;SDS011;57876;47.792;12.960;2023-07-31T04:15:16;3.40;;;0.60;;
70433;SDS011;57876;47.792;12.960;2023-07-31T04:17:40;4.03;;;0.80;;
70433;SDS011;57876;47.792;12.960;2023-07-31T04:20:05;3.30;;;0.70;;
70433;SDS011;57876;47.792;12.960;2023-07-31T04:22:29;3.50;;;0.70;;
70433;SDS011;57876;47.792;12.960;2023-07-31T04:24:54;4.00;;;0.70;;
70433;SDS011;57876;47.792;12.960;2023-07-31T04:27:18;3.40;;;0.80;;
70433;SDS011;57876;47.792;12.960;2023-07-31T04:29:43;3.37;;;0.70;;
70433;SDS011;57876;47.792;12.960;2023-07-31T04:32:09;3.83;;;0.90;;
70433;SDS011;57876;47.792;12.960;2023-07-31T04:34:34;4.10;;;0.80;;
70433;SDS011;57876;47.792;12.960;2023-07-31T04:36:58;3.77;;;0.80;;
70433;SDS011;57876;47.792;12.960;2023-07-31T04:39:23;3.10;;;0.60;;
70433;SDS011;57876;47.792;12.960;2023-07-31T04:41:47;3.37;;;0.70;;
70433;SDS011;57876;47.792;12.960;2023-07-31T04:44:11;3.40;;;0.75;;
70433;SDS011;57876;47.792;12.960;2023-07-31T04:46:36;3.33;;;0.70;;
70433;SDS011;57876;47.792;12.960;2023-07-31T04:49:01;3.38;;;0.70;;
70433;SDS011;57876;47.792;12.960;2023-07-31T04:51:25;3.23;;;0.60;;
70433;SDS011;57876;47.792;12.960;2023-07-31T04:53:50;4.30;;;0.90;;
70433;SDS011;57876;47.792;12.960;2023-07-31T04:56:14;3.90;;;0.80;;
70433;SDS011;57876;47.792;12.960;2023-07-31T04:58:40;4.20;;;1.02;;
70433;SDS011;57876;47.792;12.960;2023-07-31T05:01:04;3.70;;;0.70;;
70433;SDS011;57876;47.792;12.960;2023-07-31T05:03:28;3.37;;;0.67;;
70433;SDS011;57876;47.792;12.960;2023-07-31T05:05:53;3.08;;;0.60;;
70433;SDS011;57876;47.792;12.960;2023-07-31T05:08:17;4.17;;;0.70;;
70433;SDS011;57876;47.792;12.960;2023-07-31T05:10:41;4.03;;;0.90;;
70433;SDS011;57876;47.792;12.960;2023-07-31T05:13:06;3.50;;;0.70;;
70433;SDS011;57876;47.792;12.960;2023-07-31T05:15:30;3.37;;;0.60;;
70433;SDS011;57876;47.792;12.960;2023-07-31T05:17:55;3.65;;;0.80;;
70433;SDS011;57876;47.792;12.960;2023-07-31T05:20:20;3.40;;;0.73;;
70433;SDS011;57876;47.792;12.960;2023-07-31T05:22:44;3.08;;;0.60;;
70433;SDS011;57876;47.792;12.960;2023-07-31T05:25:09;3.03;;;0.70;;
70433;SDS011;57876;47.792;12.960;2023-07-31T05:27:34;3.87;;;0.80;;
70433;SDS011;57876;47.792;12.960;2023-07-31T05:29:59;3.35;;;0.55;;
70433;SDS011;57876;47.792;12.960;2023-07-31T05:32:23;3.17;;;0.60;;
70433;SDS011;57876;47.792;12.960;2023-07-31T05:34:50;3.40;;;0.63;;
70433;SDS011;57876;47.792;12.960;2023-07-31T05:37:15;3.30;;;0.60;;
70433;SDS011;57876;47.792;12.960;2023-07-31T05:39:40;3.40;;;0.53;;
70433;SDS011;57876;47.792;12.960;2023-07-31T05:42:04;3.27;;;0.80;;
70433;SDS011;57876;47.792;12.960;2023-07-31T05:44:29;3.80;;;0.90;;
70433;SDS011;57876;47.792;12.960;2023-07-31T05:46:54;3.50;;;0.80;;
70433;SDS011;57876;47.792;12.960;2023-07-31T05:49:18;3.50;;;0.60;;
70433;SDS011;57876;47.792;12.960;2023-07-31T05:51:43;3.57;;;0.70;;
70433;SDS011;57876;47.792;12.960;2023-07-31T05:54:07;4.40;;;0.70;;
70433;SDS011;57876;47.792;12.960;2023-07-31T05:56:31;3.58;;;0.70;;
70433;SDS011;57876;47.792;12.960;2023-07-31T05:58:58;3.03;;;0.60;;
70433;SDS011;57876;47.792;12.960;2023-07-31T06:01:22;3.40;;;0.70;;
70433;SDS011;57876;47.792;12.960;2023-07-31T06:03:49;3.43;;;0.70;;
70433;SDS011;57876;47.792;12.960;2023-07-31T06:06:14;2.85;;;0.60;;
70433;SDS011;57876;47.792;12.960;2023-07-31T06:08:38;3.33;;;0.70;;
70433;SDS011;57876;47.792;12.960;2023-07-31T06:11:07;3.20;;;0.50;;
70433;SDS011;57876;47.792;12.960;2023-07-31T06:13:33;2.92;;;0.57;;
70433;SDS011;57876;47.792;12.960;2023-07-31T06:15:57;5.00;;;0.77;;
70433;SDS011;57876;47.792;12.960;2023-07-31T06:18:23;6.00;;;0.90;;
70433;SDS011;57876;47.792;12.960;2023-07-31T06:20:47;5.53;;;1.57;;
70433;SDS011;57876;47.792;12.960;2023-07-31T06:23:17;9.30;;;0.90;;
70433;SDS011;57876;47.792;12.960;2023-07-31T06:25:42;11.15;;;1.10;;
70433;SDS011;57876;47.792;12.960;2023-07-31T06:28:07;25.27;;;2.30;;
70433;SDS011;57876;47.792;12.960;2023-07-31T06:30:32;9.80;;;1.30;;
70433;SDS011;57876;47.792;12.960;2023-07-31T06:32:57;18.90;;;1.47;;
70433;SDS011;57876;47.792;12.960;2023-07-31T06:35:23;32.83;;;1.92;;
70433;SDS011;57876;47.792;12.960;2023-07-31T06:37:47;21.05;;;1.92;;
70433;SDS011;57876;47.792;12.960;2023-07-31T06:40:12;20.73;;;1.50;;
70433;SDS011;57876;47.792;12.960;2023-07-31T06:42:36;9.70;;;1.27;;
70433;SDS011;57876;47.792;12.960;2023-07-31T06:45:01;12.10;;;1.30;;
70433;SDS011;57876;47.792;12.960;2023-07-31T06:47:26;15.02;;;1.58;;
70433;SDS011;57876;47.792;12.960;2023-07-31T06:49:50;11.23;;;2.00;;
70433;SDS011;57876;47.792;12.960;2023-07-31T06:52:15;8.32;;;1.00;;
70433;SDS011;57876;47.792;12.960;2023-07-31T06:54:39;15.53;;;1.17;;
70433;SDS011;57876;47.792;12.960;2023-07-31T06:57:04;12.30;;;1.10;;
70433;SDS011;57876;47.792;12.960;2023-07-31T06:59:28;9.35;;;1.08;;
70433;SDS011;57876;47.792;12.960;2023-07-31T07:01:53;5.67;;;1.00;;
70433;SDS011;57876;47.792;12.960;2023-07-31T07:04:17;8.20;;;1.27;;
70433;SDS011;57876;47.792;12.960;2023-07-31T07:06:41;6.10;;;0.97;;
70433;SDS011;57876;47.792;12.960;2023-07-31T07:09:06;8.87;;;1.20;;
70433;SDS011;57876;47.792;12.960;2023-07-31T07:11:30;6.88;;;1.15;;
70433;SDS011;57876;47.792;12.960;2023-07-31T07:13:55;7.37;;;1.10;;
70433;SDS011;57876;47.792;12.960;2023-07-31T07:16:20;8.57;;;1.20;;
70433;SDS011;57876;47.792;12.960;2023-07-31T07:18:44;5.27;;;1.03;;
70433;SDS011;57876;47.792;12.960;2023-07-31T07:21:09;8.20;;;1.00;;
70433;SDS011;57876;47.792;12.960;2023-07-31T07:23:33;7.80;;;1.20;;
70433;SDS011;57876;47.792;12.960;2023-07-31T07:25:58;8.73;;;1.20;;
70433;SDS011;57876;47.792;12.960;2023-07-31T07:28:22;4.77;;;1.00;;
70433;SDS011;57876;47.792;12.960;2023-07-31T07:30:55;6.40;;;1.00;;
70433;SDS011;57876;47.792;12.960;2023-07-31T07:33:20;6.22;;;1.30;;
70433;SDS011;57876;47.792;12.960;2023-07-31T07:35:50;7.73;;;0.93;;
70433;SDS011;57876;47.792;12.960;2023-07-31T07:38:15;4.32;;;1.00;;
70433;SDS011;57876;47.792;12.960;2023-07-31T07:40:40;6.70;;;1.10;;
70433;SDS011;57876;47.792;12.960;2023-07-31T07:43:07;4.53;;;0.93;;
70433;SDS011;57876;47.792;12.960;2023-07-31T07:45:32;4.70;;;1.10;;
70433;SDS011;57876;47.792;12.960;2023-07-31T07:47:56;5.87;;;0.93;;
70433;SDS011;57876;47.792;12.960;2023-07-31T07:50:23;4.50;;;0.88;;
70433;SDS011;57876;47.792;12.960;2023-07-31T07:52:49;8.17;;;1.10;;
70433;SDS011;57876;47.792;12.960;2023-07-31T07:55:14;4.53;;;1.00;;
70433;SDS011;57876;47.792;12.960;2023-07-31T07:57:39;4.57;;;1.00;;
70433;SDS011;57876;47.792;12.960;2023-07-31T08:00:03;5.20;;;1.07;;
70433;SDS011;57876;47.792;12.960;2023-07-31T08:02:28;4.20;;;0.93;;
70433;SDS011;57876;47.792;12.960;2023-07-31T08:04:53;4.60;;;0.90;;
70433;SDS011;57876;47.792;12.960;2023-07-31T08:07:17;5.23;;;1.10;;
70433;SDS011;57876;47.792;12.960;2023-07-31T08:09:42;4.40;;;0.80;;
70433;SDS011;57876;47.792;12.960;2023-07-31T08:12:06;5.87;;;0.77;;
70433;SDS011;57876;47.792;12.960;2023-07-31T08:14:31;4.90;;;1.10;;
70433;SDS011;57876;47.792;12.960;2023-07-31T08:16:55;4.33;;;0.90;;
70433;SDS011;57876;47.792;12.960;2023-07-31T08:19:23;5.05;;;1.08;;
70433;SDS011;57876;47.792;12.960;2023-07-31T08:21:50;4.87;;;0.87;;
70433;SDS011;57876;47.792;12.960;2023-07-31T08:24:17;5.13;;;1.10;;
70433;SDS011;57876;47.792;12.960;2023-07-31T08:26:42;4.07;;;0.83;;
70433;SDS011;57876;47.792;12.960;2023-07-31T08:29:06;4.50;;;0.98;;
70433;SDS011;57876;47.792;12.960;2023-07-31T08:31:31;4.90;;;1.00;;
70433;SDS011;57876;47.792;12.960;2023-07-31T08:33:55;4.70;;;0.90;;
70433;SDS011;57876;47.792;12.960;2023-07-31T08:36:20;5.90;;;1.03;;
70433;SDS011;57876;47.792;12.960;2023-07-31T08:38:45;4.87;;;0.90;;
70433;SDS011;57876;47.792;12.960;2023-07-31T08:41:19;5.47;;;0.90;;
70433;SDS011;57876;47.792;12.960;2023-07-31T08:43:50;4.63;;;0.85;;
70433;SDS011;57876;47.792;12.960;2023-07-31T08:46:16;5.93;;;0.82;;
70433;SDS011;57876;47.792;12.960;2023-07-31T08:48:41;4.93;;;0.70;;
70433;SDS011;57876;47.792;12.960;2023-07-31T08:51:06;3.58;;;0.90;;
70433;SDS011;57876;47.792;12.960;2023-07-31T08:53:37;6.43;;;1.27;;
70433;SDS011;57876;47.792;12.960;2023-07-31T08:56:01;4.90;;;1.00;;
70433;SDS011;57876;47.792;12.960;2023-07-31T08:58:31;4.68;;;0.90;;
70433;SDS011;57876;47.792;12.960;2023-07-31T09:00:56;3.90;;;0.80;;
70433;SDS011;57876;47.792;12.960;2023-07-31T09:03:21;4.40;;;1.07;;
70433;SDS011;57876;47.792;12.960;2023-07-31T09:05:51;3.50;;;0.70;;
70433;SDS011;57876;47.792;12.960;2023-07-31T09:08:18;5.65;;;1.10;;
70433;SDS011;57876;47.792;12.960;2023-07-31T09:11:12;3.50;;;0.80;;
70433;SDS011;57876;47.792;12.960;2023-07-31T09:13:37;4.57;;;0.80;;
70433;SDS011;57876;47.792;12.960;2023-07-31T09:16:04;3.70;;;0.80;;
70433;SDS011;57876;47.792;12.960;2023-07-31T09:18:31;4.13;;;0.90;;
70433;SDS011;57876;47.792;12.960;2023-07-31T09:21:05;6.15;;;0.98;;
70433;SDS011;57876;47.792;12.960;2023-07-31T09:23:40;3.80;;;1.00;;
70433;SDS011;57876;47.792;12.960;2023-07-31T09:26:31;4.43;;;0.80;;
70433;SDS011;57876;47.792;12.960;2023-07-31T09:28:58;4.20;;;0.80;;
70433;SDS011;57876;47.792;12.960;2023-07-31T09:31:52;3.60;;;0.87;;
70433;SDS011;57876;47.792;12.960;2023-07-31T09:34:28;4.50;;;0.82;;
70433;SDS011;57876;47.792;12.960;2023-07-31T09:36:57;3.95;;;0.80;;
70433;SDS011;57876;47.792;12.960;2023-07-31T09:39:25;3.78;;;0.80;;
70433;SDS011;57876;47.792;12.960;2023-07-31T09:41:54;4.97;;;0.90;;
70433;SDS011;57876;47.792;12.960;2023-07-31T09:44:19;4.20;;;0.80;;
70433;SDS011;57876;47.792;12.960;2023-07-31T09:46:44;5.03;;;1.00;;
70433;SDS011;57876;47.792;12.960;2023-07-31T09:49:10;4.45;;;1.00;;
70433;SDS011;57876;47.792;12.960;2023-07-31T09:51:37;4.13;;;1.00;;
70433;SDS011;57876;47.792;12.960;2023-07-31T09:54:05;3.47;;;0.73;;
70433;SDS011;57876;47.792;12.960;2023-07-31T09:56:33;4.80;;;0.90;;
70433;SDS011;57876;47.792;12.960;2023-07-31T09:59:00;4.30;;;1.00;;
70433;SDS011;57876;47.792;12.960;2023-07-31T10:01:27;3.83;;;0.82;;
70433;SDS011;57876;47.792;12.960;2023-07-31T10:03:51;3.90;;;0.80;;
70433;SDS011;57876;47.792;12.960;2023-07-31T10:06:16;4.90;;;0.80;;
70433;SDS011;57876;47.792;12.960;2023-07-31T10:08:43;4.77;;;0.90;;
70433;SDS011;57876;47.792;12.960;2023-07-31T10:11:11;5.43;;;0.93;;
70433;SDS011;57876;47.792;12.960;2023-07-31T10:13:38;4.57;;;0.88;;
70433;SDS011;57876;47.792;12.960;2023-07-31T10:16:03;4.40;;;0.88;;
70433;SDS011;57876;47.792;12.960;2023-07-31T10:18:28;4.40;;;0.90;;
70433;SDS011;57876;47.792;12.960;2023-07-31T10:20:58;3.67;;;0.70;;
70433;SDS011;57876;47.792;12.960;2023-07-31T10:23:24;5.15;;;1.02;;
70433;SDS011;57876;47.792;12.960;2023-07-31T10:25:53;3.42;;;0.70;;
70433;SDS011;57876;47.792;12.960;2023-07-31T10:28:18;3.70;;;0.70;;
70433;SDS011;57876;47.792;12.960;2023-07-31T10:30:43;3.57;;;0.70;;
70433;SDS011;57876;47.792;12.960;2023-07-31T10:33:08;4.30;;;0.90;;
70433;SDS011;57876;47.792;12.960;2023-07-31T10:35:33;3.47;;;0.73;;
70433;SDS011;57876;47.792;12.960;2023-07-31T10:38:08;4.13;;;0.80;;
70433;SDS011;57876;47.792;12.960;2023-07-31T10:40:35;4.32;;;0.90;;
70433;SDS011;57876;47.792;12.960;2023-07-31T10:43:00;3.55;;;0.90;;
70433;SDS011;57876;47.792;12.960;2023-07-31T10:45:26;4.17;;;0.87;;
70433;SDS011;57876;47.792;12.960;2023-07-31T10:48:01;3.53;;;0.80;;
70433;SDS011;57876;47.792;12.960;2023-07-31T10:50:29;5.53;;;1.00;;
70433;SDS011;57876;47.792;12.960;2023-07-31T10:52:56;4.10;;;1.00;;
70433;SDS011;57876;47.792;12.960;2023-07-31T10:57:57;3.95;;;0.80;;
70433;SDS011;57876;47.792;12.960;2023-07-31T11:00:29;4.22;;;0.70;;
70433;SDS011;57876;47.792;12.960;2023-07-31T11:02:58;4.20;;;0.80;;
70433;SDS011;57876;47.792;12.960;2023-07-31T11:10:43;3.50;;;0.70;;
70433;SDS011;57876;47.792;12.960;2023-07-31T11:13:09;3.50;;;0.80;;
70433;SDS011;57876;47.792;12.960;2023-07-31T11:15:33;5.13;;;0.93;;
70433;SDS011;57876;47.792;12.960;2023-07-31T11:18:01;3.97;;;0.82;;
70433;SDS011;57876;47.792;12.960;2023-07-31T11:20:35;3.85;;;0.80;;
70433;SDS011;57876;47.792;12.960;2023-07-31T11:23:02;3.57;;;0.60;;
70433;SDS011;57876;47.792;12.960;2023-07-31T11:25:28;3.85;;;0.80;;
70433;SDS011;57876;47.792;12.960;2023-07-31T11:27:54;3.50;;;0.70;;
70433;SDS011;57876;47.792;12.960;2023-07-31T11:30:20;3.70;;;0.77;;
70433;SDS011;57876;47.792;12.960;2023-07-31T11:32:44;3.70;;;0.77;;
70433;SDS011;57876;47.792;12.960;2023-07-31T11:35:12;4.03;;;0.80;;
70433;SDS011;57876;47.792;12.960;2023-07-31T11:37:43;3.53;;;0.80;;
70433;SDS011;57876;47.792;12.960;2023-07-31T11:40:08;3.33;;;0.75;;
70433;SDS011;57876;47.792;12.960;2023-07-31T11:42:34;3.67;;;0.70;;
70433;SDS011;57876;47.792;12.960;2023-07-31T11:44:58;3.60;;;0.80;;
70433;SDS011;57876;47.792;12.960;2023-07-31T11:47:26;3.60;;;0.70;;
70433;SDS011;57876;47.792;12.960;2023-07-31T11:49:51;3.27;;;0.70;;
70433;SDS011;57876;47.792;12.960;2023-07-31T11:52:15;3.83;;;0.70;;
70433;SDS011;57876;47.792;12.960;2023-07-31T11:54:40;7.93;;;1.60;;
70433;SDS011;57876;47.792;12.960;2023-07-31T11:57:05;9.60;;;1.85;;
70433;SDS011;57876;47.792;12.960;2023-07-31T11:59:30;6.70;;;1.30;;
70433;SDS011;57876;47.792;12.960;2023-07-31T12:01:55;9.75;;;1.55;;
70433;SDS011;57876;47.792;12.960;2023-07-31T12:04:20;9.73;;;1.67;;
70433;SDS011;57876;47.792;12.960;2023-07-31T12:06:45;5.45;;;1.40;;
70433;SDS011;57876;47.792;12.960;2023-07-31T12:09:10;6.07;;;1.70;;
70433;SDS011;57876;47.792;12.960;2023-07-31T12:11:46;8.17;;;1.70;;
70433;SDS011;57876;47.792;12.960;2023-07-31T12:14:24;6.05;;;1.33;;
70433;SDS011;57876;47.792;12.960;2023-07-31T12:16:53;6.55;;;1.60;;
70433;SDS011;57876;47.792;12.960;2023-07-31T12:19:18;6.75;;;1.73;;
70433;SDS011;57876;47.792;12.960;2023-07-31T12:21:43;7.27;;;1.60;;
70433;SDS011;57876;47.792;12.960;2023-07-31T12:24:11;6.90;;;1.57;;
70433;SDS011;57876;47.792;12.960;2023-07-31T12:26:35;8.77;;;1.48;;
70433;SDS011;57876;47.792;12.960;2023-07-31T12:29:01;6.03;;;1.40;;
70433;SDS011;57876;47.792;12.960;2023-07-31T12:34:43;6.65;;;1.48;;
70433;SDS011;57876;47.792;12.960;2023-07-31T12:37:11;4.95;;;1.48;;
70433;SDS011;57876;47.792;12.960;2023-07-31T12:39:36;5.73;;;1.50;;
70433;SDS011;57876;47.792;12.960;2023-07-31T12:42:00;6.70;;;1.50;;
70433;SDS011;57876;47.792;12.960;2023-07-31T12:44:25;5.53;;;1.40;;
70433;SDS011;57876;47.792;12.960;2023-07-31T12:46:49;7.03;;;1.50;;
70433;SDS011;57876;47.792;12.960;2023-07-31T12:49:13;6.03;;;1.60;;
70433;SDS011;57876;47.792;12.960;2023-07-31T12:51:38;7.70;;;1.60;;
70433;SDS011;57876;47.792;12.960;2023-07-31T12:54:02;5.47;;;1.40;;
70433;SDS011;57876;47.792;12.960;2023-07-31T12:56:27;4.67;;;1.10;;
70433;SDS011;57876;47.792;12.960;2023-07-31T12:58:51;5.33;;;1.20;;
70433;SDS011;57876;47.792;12.960;2023-07-31T13:01:15;6.57;;;1.48;;
70433;SDS011;57876;47.792;12.960;2023-07-31T13:03:40;5.67;;;1.30;;
70433;SDS011;57876;47.792;12.960;2023-07-31T13:06:04;5.17;;;1.17;;
70433;SDS011;57876;47.792;12.960;2023-07-31T13:08:29;5.97;;;1.45;;
70433;SDS011;57876;47.792;12.960;2023-07-31T13:10:54;6.83;;;1.60;;
70433;SDS011;57876;47.792;12.960;2023-07-31T13:13:18;7.93;;;1.90;;
70433;SDS011;57876;47.792;12.960;2023-07-31T13:15:43;7.87;;;1.97;;
70433;SDS011;57876;47.792;12.960;2023-07-31T13:18:08;7.55;;;3.05;;
70433;SDS011;57876;47.792;12.960;2023-07-31T13:20:32;9.67;;;2.90;;
70433;SDS011;57876;47.792;12.960;2023-07-31T13:22:58;12.73;;;3.67;;
70433;SDS011;57876;47.792;12.960;2023-07-31T13:25:23;10.30;;;3.87;;
70433;SDS011;57876;47.792;12.960;2023-07-31T13:27:47;14.20;;;4.10;;
70433;SDS011;57876;47.792;12.960;2023-07-31T13:30:11;14.17;;;4.60;;
70433;SDS011;57876;47.792;12.960;2023-07-31T13:32:36;17.80;;;5.63;;
70433;SDS011;57876;47.792;12.960;2023-07-31T13:35:04;12.50;;;5.15;;
70433;SDS011;57876;47.792;12.960;2023-07-31T13:37:29;20.52;;;7.30;;
70433;SDS011;57876;47.792;12.960;2023-07-31T13:39:54;16.23;;;5.87;;
70433;SDS011;57876;47.792;12.960;2023-07-31T13:42:18;15.00;;;6.03;;
70433;SDS011;57876;47.792;12.960;2023-07-31T13:44:43;15.20;;;5.60;;
70433;SDS011;57876;47.792;12.960;2023-07-31T13:47:07;14.20;;;5.80;;
70433;SDS011;57876;47.792;12.960;2023-07-31T13:49:33;13.85;;;6.25;;
70433;SDS011;57876;47.792;12.960;2023-07-31T13:51:58;16.27;;;7.00;;
70433;SDS011;57876;47.792;12.960;2023-07-31T13:54:23;19.43;;;8.57;;
70433;SDS011;57876;47.792;12.960;2023-07-31T13:56:48;23.63;;;8.88;;
70433;SDS011;57876;47.792;12.960;2023-07-31T13:59:12;22.63;;;10.03;;
70433;SDS011;57876;47.792;12.960;2023-07-31T14:01:39;26.23;;;10.27;;
70433;SDS011;57876;47.792;12.960;2023-07-31T14:04:03;22.47;;;10.03;;
70433;SDS011;57876;47.792;12.960;2023-07-31T14:06:28;23.38;;;11.18;;
70433;SDS011;57876;47.792;12.960;2023-07-31T14:08:52;26.13;;;11.90;;
70433;SDS011;57876;47.792;12.960;2023-07-31T14:11:16;26.90;;;10.80;;
70433;SDS011;57876;47.792;12.960;2023-07-31T14:13:41;25.57;;;10.90;;
70433;SDS011;57876;47.792;12.960;2023-07-31T14:16:05;24.80;;;11.10;;
70433;SDS011;57876;47.792;12.960;2023-07-31T14:18:30;27.00;;;12.35;;
70433;SDS011;57876;47.792;12.960;2023-07-31T14:20:54;27.47;;;12.40;;
70433;SDS011;57876;47.792;12.960;2023-07-31T14:23:19;33.03;;;14.88;;
70433;SDS011;57876;47.792;12.960;2023-07-31T14:25:44;31.70;;;14.90;;
70433;SDS011;57876;47.792;12.960;2023-07-31T14:28:08;34.47;;;15.37;;
70433;SDS011;57876;47.792;12.960;2023-07-31T14:30:32;31.77;;;14.70;;
70433;SDS011;57876;47.792;12.960;2023-07-31T14:32:57;32.80;;;15.90;;
70433;SDS011;57876;47.792;12.960;2023-07-31T14:35:21;36.70;;;17.53;;
70433;SDS011;57876;47.792;12.960;2023-07-31T14:37:46;31.83;;;14.47;;
70433;SDS011;57876;47.792;12.960;2023-07-31T14:40:11;33.55;;;16.30;;
70433;SDS011;57876;47.792;12.960;2023-07-31T14:42:36;27.60;;;15.13;;
70433;SDS011;57876;47.792;12.960;2023-07-31T14:45:01;31.85;;;15.15;;
70433;SDS011;57876;47.792;12.960;2023-07-31T14:47:29;31.35;;;14.63;;
70433;SDS011;57876;47.792;12.960;2023-07-31T14:49:55;28.58;;;14.20;;
70433;SDS011;57876;47.792;12.960;2023-07-31T14:52:19;31.00;;;14.03;;